Piedmont Triad International Airport
KGSO : now visible

Airfield :











YOU CAN JOIN US ON...

 
LOGIN :

Register | Disclaimer

   EN    FR    IT 

 









Legend :    VFR   Marginal VFR   IFR   Intensive IFR   Very Intensive IFR
Visi :
Ceiling :
>= 8 km
>= 3000ft
5 to 8 km
1000 to 3000 ft
1500m to 5 km
500 to 1000 ft
800 to 1500m
200 to 500 ft
< 800m
< 200 ft
Symbols :   Thunderstorms  Fog  Heavy snow  Heavy precipitations  Wind > 20 kt






- Airport Elevation : 925 ft
- IATA code : GSO


KGSO - Piedmont Triad International

CURRENT METAR :
  • 161254Z 18004KT 10SM FEW032 BKN250 04/04 A3017 RMK AO2 SLP219 T00440039

EXPIRED METARs :
  • 161154Z 00000KT 7SM SCT250 06/04 A3016 RMK AO2 SLP214 T00560044 10078 20050 53010
  • 161054Z 22004KT 9SM SCT250 05/04 A3013 RMK AO2 SLP202 T00500039

TAF KGSO
Valid from the 16 at 12:00 until the 17 at 12:00 UTC


161135Z 1612/1712 19005KT P6SM BKN030 WS020/23035KT
FM161600 22010G20KT P6SM SCT020
FM170200 20007KT P6SM BKN020
FM170600 20008G15KT P6SM -SHRA OVC008



MET'MAP, your aeronautical weather chart ! - Copyright ORBIFLY December 2007 - Disclaimer

ORBIFLY MET'MAP TEAM :

Programming & Development : Alexandra Zaïnal
Concept & original design : Baudouin d'Aumeries
Assistance for programming : Marc-Olivier Méhu
Technical & hardware support : Manuel Goepfert

Contact : metmap@orbifly.com




SOURCES & CREDITS :

   NOAA       Earth
Advisory